Time;durP1;ratioP1;P1;durP2;ratioP2;P2;SDS_P1;SDS_P2;PMS_P1;PMS_P2;Temp;Humidity;BMP_temperature;BMP_pressure;BME280_temperature;BME280_humidity;BME280_pressure;Samples;Min_cycle;Max_cycle;Signal;HPM_P1;HPM_P2
2022/08/31 00:05:20;;;;;;;21.07;9.10;;;;;;;;;;749986;185;917544;-57
2022/08/31 00:07:46;;;;;;;14.10;8.80;;;;;;;;;;754644;184;917125;-58
2022/08/31 00:10:13;;;;;;;10.63;8.40;;;;;;;;;;756056;183;919163;-57
2022/08/31 00:12:39;;;;;;;10.93;8.83;;;;;;;;;;755202;185;921297;-59
2022/08/31 00:15:05;;;;;;;12.50;8.30;;;;;;;;;;748590;186;919985;-56
2022/08/31 00:17:31;;;;;;;15.93;9.80;;;;;;;;;;751219;185;919267;-58
2022/08/31 00:19:57;;;;;;;10.23;7.80;;;;;;;;;;756841;185;919170;-57
2022/08/31 00:22:23;;;;;;;15.03;8.67;;;;;;;;;;754830;184;918811;-58
2022/08/31 00:24:49;;;;;;;11.17;8.93;;;;;;;;;;750772;185;918747;-58
2022/08/31 00:27:15;;;;;;;10.90;8.23;;;;;;;;;;758841;184;917724;-57
2022/08/31 00:29:41;;;;;;;14.33;9.27;;;;;;;;;;753991;184;915906;-58
2022/08/31 00:32:07;;;;;;;16.47;10.73;;;;;;;;;;746448;185;923998;-57
2022/08/31 00:34:32;;;;;;;11.40;9.10;;;;;;;;;;754636;185;816923;-56
2022/08/31 00:36:59;;;;;;;13.57;9.30;;;;;;;;;;756178;184;850006;-56
2022/08/31 00:39:24;;;;;;;25.07;11.30;;;;;;;;;;753646;184;918575;-57
2022/08/31 00:41:50;;;;;;;16.63;10.60;;;;;;;;;;750619;185;818663;-58
2022/08/31 00:44:16;;;;;;;14.37;9.90;;;;;;;;;;746366;185;919186;-57
2022/08/31 00:46:42;;;;;;;17.47;10.03;;;;;;;;;;754807;184;919983;-56
2022/08/31 00:49:08;;;;;;;12.93;9.40;;;;;;;;;;747641;185;798472;-58
2022/08/31 00:51:36;;;;;;;14.67;10.27;;;;;;;;;;759565;184;913947;-57
2022/08/31 00:54:02;;;;;;;15.43;9.47;;;;;;;;;;755011;184;919159;-56
2022/08/31 00:56:30;;;;;;;12.73;10.30;;;;;;;;;;754366;184;919593;-56
2022/08/31 00:58:54;;;;;;;15.43;10.07;;;;;;;;;;754194;183;919640;-58
2022/08/31 01:01:20;;;;;;;12.70;10.23;;;;;;;;;;757818;182;875629;-58
2022/08/31 01:03:45;;;;;;;14.77;10.30;;;;;;;;;;749566;184;918798;-57
2022/08/31 01:06:11;;;;;;;14.77;10.33;;;;;;;;;;750394;184;924312;-58
2022/08/31 01:08:37;;;;;;;15.53;10.93;;;;;;;;;;762733;182;920160;-58
2022/08/31 01:11:03;;;;;;;17.87;11.45;;;;;;;;;;750891;184;922281;-56
2022/08/31 01:13:29;;;;;;;20.23;11.90;;;;;;;;;;753703;184;919163;-57
2022/08/31 01:15:55;;;;;;;16.77;11.90;;;;;;;;;;760418;184;919983;-58
2022/08/31 01:18:21;;;;;;;17.85;10.27;;;;;;;;;;754206;182;919147;-57
2022/08/31 01:20:47;;;;;;;14.80;10.73;;;;;;;;;;754617;184;916740;-57
2022/08/31 01:23:13;;;;;;;16.03;10.73;;;;;;;;;;755673;184;919524;-57
2022/08/31 01:25:39;;;;;;;16.80;11.63;;;;;;;;;;751996;183;918882;-58
2022/08/31 01:28:05;;;;;;;17.80;10.80;;;;;;;;;;755097;184;918306;-58
2022/08/31 01:30:31;;;;;;;18.90;12.73;;;;;;;;;;748225;181;919422;-57
2022/08/31 01:32:56;;;;;;;16.77;11.63;;;;;;;;;;759590;182;919422;-58
2022/08/31 01:35:22;;;;;;;13.90;11.37;;;;;;;;;;755254;185;841227;-58
2022/08/31 01:37:48;;;;;;;21.67;12.07;;;;;;;;;;748747;185;918977;-58
2022/08/31 01:40:14;;;;;;;19.03;12.40;;;;;;;;;;757958;185;919241;-57
2022/08/31 01:42:40;;;;;;;25.10;14.77;;;;;;;;;;748549;185;883003;-57
2022/08/31 01:45:06;;;;;;;19.63;13.50;;;;;;;;;;752702;184;918233;-57
2022/08/31 01:47:32;;;;;;;22.93;12.80;;;;;;;;;;756176;185;918098;-56
2022/08/31 01:49:58;;;;;;;15.03;11.80;;;;;;;;;;753594;181;916608;-57
2022/08/31 01:52:24;;;;;;;17.67;12.32;;;;;;;;;;757972;184;920004;-60
2022/08/31 01:54:50;;;;;;;17.17;12.83;;;;;;;;;;759364;184;918711;-58
2022/08/31 01:57:16;;;;;;;18.37;12.63;;;;;;;;;;760397;181;918759;-57
2022/08/31 01:59:42;;;;;;;17.70;14.30;;;;;;;;;;747717;185;816619;-58
2022/08/31 02:02:08;;;;;;;17.10;12.33;;;;;;;;;;753768;185;920131;-58
2022/08/31 02:04:33;;;;;;;19.53;14.50;;;;;;;;;;762301;182;812789;-58
2022/08/31 02:06:59;;;;;;;16.77;13.13;;;;;;;;;;755839;184;914855;-59
2022/08/31 02:09:25;;;;;;;21.87;13.37;;;;;;;;;;750434;184;919061;-58
2022/08/31 02:11:51;;;;;;;18.13;12.80;;;;;;;;;;761377;183;817045;-57
2022/08/31 02:14:17;;;;;;;27.63;14.97;;;;;;;;;;751487;184;921390;-57
2022/08/31 02:16:43;;;;;;;15.67;11.47;;;;;;;;;;751592;184;919193;-57
2022/08/31 02:19:09;;;;;;;21.60;12.40;;;;;;;;;;753677;182;916277;-57
2022/08/31 02:21:34;;;;;;;18.20;13.00;;;;;;;;;;753817;184;938785;-57
2022/08/31 02:24:00;;;;;;;18.17;12.67;;;;;;;;;;747370;184;902053;-56
2022/08/31 02:26:26;;;;;;;21.87;13.98;;;;;;;;;;755229;184;918878;-58
2022/08/31 02:28:52;;;;;;;19.10;14.80;;;;;;;;;;754638;185;919836;-57
2022/08/31 02:31:18;;;;;;;19.83;14.83;;;;;;;;;;752595;184;919616;-58
2022/08/31 02:33:44;;;;;;;20.30;13.73;;;;;;;;;;756058;183;918995;-56
2022/08/31 02:36:09;;;;;;;22.53;15.60;;;;;;;;;;760478;184;920392;-57
2022/08/31 02:38:35;;;;;;;26.73;16.80;;;;;;;;;;758409;184;919894;-58
2022/08/31 02:41:01;;;;;;;24.40;15.40;;;;;;;;;;752658;184;920136;-57
2022/08/31 02:43:27;;;;;;;26.90;16.33;;;;;;;;;;756799;185;919680;-58
2022/08/31 02:45:53;;;;;;;21.70;15.80;;;;;;;;;;750773;185;921106;-58
2022/08/31 02:48:19;;;;;;;20.40;15.17;;;;;;;;;;758764;184;860377;-57
2022/08/31 02:50:44;;;;;;;25.20;16.90;;;;;;;;;;746759;184;1950419;-58
2022/08/31 02:53:10;;;;;;;26.17;18.17;;;;;;;;;;761927;182;792856;-57
2022/08/31 02:55:36;;;;;;;21.65;16.12;;;;;;;;;;752447;184;918285;-58
2022/08/31 02:58:02;;;;;;;23.47;15.57;;;;;;;;;;751786;185;915820;-58
2022/08/31 03:00:28;;;;;;;25.33;16.73;;;;;;;;;;757817;185;919163;-57
2022/08/31 03:02:54;;;;;;;28.03;18.30;;;;;;;;;;750607;185;920245;-58
2022/08/31 03:05:20;;;;;;;22.90;17.50;;;;;;;;;;751085;185;914421;-58
2022/08/31 03:07:45;;;;;;;22.43;15.60;;;;;;;;;;757088;182;820195;-58
2022/08/31 03:10:12;;;;;;;26.47;16.37;;;;;;;;;;751622;185;918462;-57
2022/08/31 03:12:37;;;;;;;24.63;17.00;;;;;;;;;;753747;185;916291;-56
2022/08/31 03:15:03;;;;;;;25.53;19.00;;;;;;;;;;755157;184;873980;-58
2022/08/31 03:17:29;;;;;;;26.45;17.02;;;;;;;;;;754469;184;920540;-56
2022/08/31 03:20:01;;;;;;;21.87;16.17;;;;;;;;;;753093;184;919228;-58
2022/08/31 03:22:21;;;;;;;24.37;16.50;;;;;;;;;;752854;184;919327;-58
2022/08/31 03:24:47;;;;;;;20.53;16.63;;;;;;;;;;754584;184;816683;-57
2022/08/31 03:27:13;;;;;;;27.90;18.70;;;;;;;;;;756959;184;919301;-58
2022/08/31 03:29:41;;;;;;;28.52;16.85;;;;;;;;;;757776;184;919620;-57
2022/08/31 03:32:04;;;;;;;20.73;16.23;;;;;;;;;;758166;184;920990;-58
2022/08/31 03:34:30;;;;;;;23.47;16.97;;;;;;;;;;756681;182;838639;-58
2022/08/31 03:36:56;;;;;;;25.20;16.05;;;;;;;;;;751106;185;919313;-58
2022/08/31 03:39:22;;;;;;;33.77;16.43;;;;;;;;;;756588;185;920486;-58
2022/08/31 03:41:48;;;;;;;22.60;16.97;;;;;;;;;;754136;184;923538;-57
2022/08/31 03:44:14;;;;;;;23.10;16.23;;;;;;;;;;750944;184;922019;-57
2022/08/31 03:46:44;;;;;;;24.60;18.87;;;;;;;;;;749313;185;918256;-58
2022/08/31 03:49:06;;;;;;;24.83;16.47;;;;;;;;;;755940;185;917530;-58
2022/08/31 03:51:31;;;;;;;26.47;17.93;;;;;;;;;;752417;184;919451;-58
2022/08/31 03:53:57;;;;;;;28.27;17.13;;;;;;;;;;755269;184;923464;-58
2022/08/31 03:56:23;;;;;;;26.63;16.97;;;;;;;;;;755940;185;918818;-57
2022/08/31 03:58:49;;;;;;;22.63;16.57;;;;;;;;;;748957;185;910790;-58
2022/08/31 04:01:15;;;;;;;26.23;18.17;;;;;;;;;;749557;185;920451;-57
2022/08/31 04:03:40;;;;;;;26.60;17.13;;;;;;;;;;757628;184;946090;-58
2022/08/31 04:06:06;;;;;;;26.33;17.53;;;;;;;;;;753898;184;918355;-58
2022/08/31 04:08:32;;;;;;;26.40;18.60;;;;;;;;;;757927;184;918645;-57
2022/08/31 04:10:58;;;;;;;31.87;18.87;;;;;;;;;;747315;185;920402;-59
2022/08/31 04:13:24;;;;;;;27.70;19.27;;;;;;;;;;748356;185;918106;-58
2022/08/31 04:15:50;;;;;;;25.57;18.70;;;;;;;;;;752833;184;919999;-58
2022/08/31 04:18:16;;;;;;;26.83;17.95;;;;;;;;;;752958;184;919823;-58
2022/08/31 04:20:41;;;;;;;33.90;17.57;;;;;;;;;;760462;184;917514;-58
2022/08/31 04:23:08;;;;;;;24.43;16.00;;;;;;;;;;751245;184;919052;-57
2022/08/31 04:25:36;;;;;;;23.27;17.47;;;;;;;;;;755909;183;878524;-58
2022/08/31 04:28:02;;;;;;;27.90;18.70;;;;;;;;;;758074;180;808681;-57
2022/08/31 04:30:28;;;;;;;31.47;19.47;;;;;;;;;;757176;180;816816;-58
2022/08/31 04:32:54;;;;;;;27.50;18.53;;;;;;;;;;756980;184;918283;-58
2022/08/31 04:35:20;;;;;;;29.30;19.33;;;;;;;;;;754343;184;919069;-58
2022/08/31 04:37:46;;;;;;;27.00;16.70;;;;;;;;;;762120;183;816810;-58
2022/08/31 04:40:18;;;;;;;26.37;17.57;;;;;;;;;;752490;184;816155;-58
2022/08/31 04:42:37;;;;;;;31.42;17.35;;;;;;;;;;755417;183;918233;-58
2022/08/31 04:45:03;;;;;;;25.73;16.73;;;;;;;;;;754603;180;816031;-57
2022/08/31 04:47:29;;;;;;;25.47;17.20;;;;;;;;;;755631;184;910754;-57
2022/08/31 04:49:55;;;;;;;27.93;17.57;;;;;;;;;;753018;185;923978;-58
2022/08/31 04:52:21;;;;;;;27.70;19.53;;;;;;;;;;759412;184;915437;-57
2022/08/31 04:54:47;;;;;;;29.47;18.63;;;;;;;;;;751985;184;947454;-57
2022/08/31 04:57:13;;;;;;;27.90;19.13;;;;;;;;;;754941;184;915874;-58
2022/08/31 04:59:38;;;;;;;29.17;19.23;;;;;;;;;;754276;184;920161;-58
2022/08/31 05:02:04;;;;;;;29.60;17.73;;;;;;;;;;747961;186;919867;-57
2022/08/31 05:04:30;;;;;;;31.03;18.57;;;;;;;;;;748309;185;929463;-58
2022/08/31 05:06:56;;;;;;;32.57;21.97;;;;;;;;;;749736;185;918142;-59
2022/08/31 05:09:22;;;;;;;34.77;22.13;;;;;;;;;;759185;184;918561;-57
2022/08/31 05:11:49;;;;;;;34.33;20.13;;;;;;;;;;754676;184;919150;-59
2022/08/31 05:14:14;;;;;;;33.63;20.92;;;;;;;;;;751184;184;816777;-58
2022/08/31 05:16:39;;;;;;;32.37;19.07;;;;;;;;;;754695;181;917705;-56
2022/08/31 05:19:05;;;;;;;27.70;20.58;;;;;;;;;;753231;184;918766;-57
2022/08/31 05:21:31;;;;;;;34.10;21.37;;;;;;;;;;751839;184;913156;-58
2022/08/31 05:23:57;;;;;;;35.27;20.40;;;;;;;;;;754556;184;919400;-58
2022/08/31 05:26:23;;;;;;;31.20;19.50;;;;;;;;;;749744;185;918790;-58
2022/08/31 05:28:49;;;;;;;37.80;22.20;;;;;;;;;;751195;183;919136;-57
2022/08/31 05:31:15;;;;;;;32.30;21.23;;;;;;;;;;754295;184;919213;-58
2022/08/31 05:33:40;;;;;;;30.53;19.27;;;;;;;;;;754226;185;1021024;-58
2022/08/31 05:36:07;;;;;;;29.03;19.30;;;;;;;;;;747851;185;919154;-58
2022/08/31 05:38:33;;;;;;;30.97;18.60;;;;;;;;;;757696;184;917767;-58
2022/08/31 05:40:58;;;;;;;26.73;18.63;;;;;;;;;;756919;182;812663;-58
2022/08/31 05:43:24;;;;;;;26.10;17.77;;;;;;;;;;753041;183;916724;-58
2022/08/31 05:45:50;;;;;;;29.20;18.60;;;;;;;;;;755804;184;920270;-56
2022/08/31 05:48:16;;;;;;;24.77;17.37;;;;;;;;;;754210;184;915112;-56
2022/08/31 05:50:42;;;;;;;29.80;19.30;;;;;;;;;;755978;184;912341;-57
2022/08/31 05:53:08;;;;;;;34.10;19.53;;;;;;;;;;753722;184;759475;-57
2022/08/31 05:55:33;;;;;;;23.50;16.33;;;;;;;;;;749230;182;915533;-57
2022/08/31 05:57:59;;;;;;;26.37;16.13;;;;;;;;;;746747;187;919735;-57
2022/08/31 06:00:25;;;;;;;24.83;15.03;;;;;;;;;;750415;185;918803;-57
2022/08/31 06:02:51;;;;;;;22.10;15.60;;;;;;;;;;747274;184;919113;-57
2022/08/31 06:05:17;;;;;;;23.53;17.37;;;;;;;;;;754076;185;918831;-58
2022/08/31 06:07:43;;;;;;;24.73;16.73;;;;;;;;;;752612;182;920076;-55
2022/08/31 06:10:09;;;;;;;25.10;17.00;;;;;;;;;;753398;184;1020746;-57
2022/08/31 06:12:36;;;;;;;21.70;14.97;;;;;;;;;;758421;184;918907;-57
2022/08/31 06:15:04;;;;;;;21.47;16.27;;;;;;;;;;750401;184;919498;-56
2022/08/31 06:17:27;;;;;;;21.87;15.20;;;;;;;;;;756591;184;816859;-58
2022/08/31 06:19:56;;;;;;;22.47;15.50;;;;;;;;;;754328;184;920128;-56
2022/08/31 06:22:19;;;;;;;21.87;14.97;;;;;;;;;;753727;185;923472;-56
2022/08/31 06:24:45;;;;;;;23.73;15.97;;;;;;;;;;753728;182;919897;-58
2022/08/31 06:27:10;;;;;;;20.70;14.80;;;;;;;;;;748348;185;918952;-58
2022/08/31 06:29:36;;;;;;;20.03;14.50;;;;;;;;;;759819;184;812176;-56
2022/08/31 06:32:06;;;;;;;21.50;13.67;;;;;;;;;;751373;184;919723;-57
2022/08/31 06:34:28;;;;;;;19.43;14.33;;;;;;;;;;753051;184;917359;-58
2022/08/31 06:36:54;;;;;;;20.37;13.93;;;;;;;;;;758563;181;653746;-57
2022/08/31 06:39:20;;;;;;;19.00;13.20;;;;;;;;;;756253;184;913320;-57
2022/08/31 06:41:47;;;;;;;23.03;14.77;;;;;;;;;;755245;184;916760;-58
2022/08/31 06:44:12;;;;;;;17.50;13.80;;;;;;;;;;754093;184;906770;-57
2022/08/31 06:46:37;;;;;;;17.97;13.13;;;;;;;;;;749767;185;878007;-56
2022/08/31 06:49:03;;;;;;;22.47;14.17;;;;;;;;;;754580;183;912983;-58
2022/08/31 06:51:35;;;;;;;19.77;14.80;;;;;;;;;;754412;183;913198;-58
2022/08/31 06:53:55;;;;;;;22.43;14.10;;;;;;;;;;757274;184;919592;-58
2022/08/31 06:56:21;;;;;;;26.50;15.47;;;;;;;;;;754055;184;913207;-58
2022/08/31 06:58:47;;;;;;;18.17;12.03;;;;;;;;;;756813;184;815166;-57
2022/08/31 07:01:13;;;;;;;18.07;13.10;;;;;;;;;;760286;181;926435;-58
2022/08/31 07:03:39;;;;;;;16.43;12.40;;;;;;;;;;753075;184;919083;-57
2022/08/31 07:06:05;;;;;;;16.10;11.87;;;;;;;;;;753940;184;920342;-58
2022/08/31 07:08:31;;;;;;;16.73;11.30;;;;;;;;;;753087;184;821234;-58
2022/08/31 07:10:57;;;;;;;17.93;12.70;;;;;;;;;;749985;184;921187;-57
2022/08/31 07:13:23;;;;;;;16.13;11.20;;;;;;;;;;747813;182;919027;-58
2022/08/31 07:15:48;;;;;;;18.13;11.73;;;;;;;;;;749119;185;918146;-57
2022/08/31 07:18:14;;;;;;;17.10;11.10;;;;;;;;;;757594;184;918535;-57
2022/08/31 07:20:40;;;;;;;18.83;11.73;;;;;;;;;;754035;184;918467;-57
2022/08/31 07:23:06;;;;;;;14.35;10.23;;;;;;;;;;753419;184;819244;-57
2022/08/31 07:25:32;;;;;;;14.60;10.57;;;;;;;;;;757024;185;816420;-56
2022/08/31 07:27:58;;;;;;;15.03;9.90;;;;;;;;;;753932;181;825554;-57
2022/08/31 07:30:24;;;;;;;16.62;11.02;;;;;;;;;;754926;181;819021;-57
2022/08/31 07:32:50;;;;;;;23.83;12.53;;;;;;;;;;752460;185;917640;-58
2022/08/31 07:35:16;;;;;;;15.47;10.67;;;;;;;;;;754421;182;843328;-58
2022/08/31 07:42:45;;;;;;;17.65;11.12;;;;;;;;;;756009;184;919103;-56
2022/08/31 07:45:11;;;;;;;17.47;10.80;;;;;;;;;;752508;184;919913;-58
2022/08/31 07:47:44;;;;;;;18.43;11.47;;;;;;;;;;751636;181;833109;-58
2022/08/31 07:50:02;;;;;;;13.38;10.52;;;;;;;;;;752589;184;918556;-58
2022/08/31 07:52:28;;;;;;;17.37;9.60;;;;;;;;;;755614;182;817187;-58
2022/08/31 07:54:54;;;;;;;13.63;8.70;;;;;;;;;;749376;185;860314;-57
2022/08/31 07:57:21;;;;;;;17.15;8.68;;;;;;;;;;751660;184;918860;-58
2022/08/31 07:59:46;;;;;;;10.70;8.63;;;;;;;;;;755633;185;919208;-57
2022/08/31 08:02:12;;;;;;;12.80;8.60;;;;;;;;;;752248;184;920150;-59
2022/08/31 08:04:42;;;;;;;10.90;8.63;;;;;;;;;;750831;181;919437;-57
2022/08/31 08:07:04;;;;;;;12.60;7.87;;;;;;;;;;756830;183;919394;-58
2022/08/31 08:09:29;;;;;;;10.38;7.35;;;;;;;;;;755484;184;917634;-57
2022/08/31 08:11:56;;;;;;;12.23;7.30;;;;;;;;;;755131;184;918353;-58
2022/08/31 08:14:22;;;;;;;11.93;7.70;;;;;;;;;;756809;184;919265;-59
2022/08/31 08:16:47;;;;;;;13.83;7.30;;;;;;;;;;765673;181;904490;-58
2022/08/31 08:19:13;;;;;;;9.70;6.53;;;;;;;;;;754843;184;893655;-58
2022/08/31 08:21:40;;;;;;;19.93;9.17;;;;;;;;;;749702;185;932590;-57
2022/08/31 08:24:05;;;;;;;12.20;5.83;;;;;;;;;;753904;185;905091;-61
2022/08/31 08:26:31;;;;;;;8.10;5.97;;;;;;;;;;756171;182;901264;-58
2022/08/31 08:28:57;;;;;;;9.67;6.40;;;;;;;;;;753204;184;713306;-57
2022/08/31 08:31:23;;;;;;;13.53;6.73;;;;;;;;;;754220;183;916831;-59
2022/08/31 08:33:49;;;;;;;10.93;6.80;;;;;;;;;;756414;183;872225;-57
2022/08/31 08:36:17;;;;;;;10.97;6.93;;;;;;;;;;752937;184;926365;-58
2022/08/31 08:38:44;;;;;;;10.90;6.90;;;;;;;;;;755515;184;918692;-58
2022/08/31 08:41:07;;;;;;;12.70;8.10;;;;;;;;;;754141;184;920895;-59
2022/08/31 08:43:35;;;;;;;9.43;5.70;;;;;;;;;;747271;185;917429;-57
2022/08/31 08:46:01;;;;;;;12.90;5.73;;;;;;;;;;747165;184;918528;-58
2022/08/31 08:48:26;;;;;;;8.03;5.87;;;;;;;;;;754440;183;917505;-58
2022/08/31 08:50:52;;;;;;;8.53;5.77;;;;;;;;;;753901;183;917952;-57
2022/08/31 08:53:18;;;;;;;11.07;5.67;;;;;;;;;;753941;185;638442;-58
2022/08/31 08:55:44;;;;;;;9.50;5.90;;;;;;;;;;757334;184;633382;-58
2022/08/31 08:58:10;;;;;;;8.80;5.17;;;;;;;;;;743481;184;618584;-59
2022/08/31 09:00:36;;;;;;;7.77;5.53;;;;;;;;;;749070;186;818997;-59
2022/08/31 09:03:02;;;;;;;7.00;5.40;;;;;;;;;;755096;184;763260;-58
2022/08/31 09:05:34;;;;;;;8.33;5.50;;;;;;;;;;758826;183;818939;-59
2022/08/31 09:08:08;;;;;;;7.13;5.97;;;;;;;;;;749053;184;816691;-59
2022/08/31 09:10:32;;;;;;;5.93;4.50;;;;;;;;;;751262;182;821504;-58
2022/08/31 09:13:10;;;;;;;7.40;5.00;;;;;;;;;;750723;183;891318;-59
2022/08/31 09:15:39;;;;;;;8.73;5.90;;;;;;;;;;760963;181;888346;-58
2022/08/31 09:18:11;;;;;;;7.97;4.93;;;;;;;;;;755220;181;919052;-58
2022/08/31 09:20:40;;;;;;;5.27;3.87;;;;;;;;;;751881;184;919447;-58
2022/08/31 09:23:06;;;;;;;5.67;4.30;;;;;;;;;;754667;184;916551;-58
2022/08/31 09:25:31;;;;;;;8.43;4.35;;;;;;;;;;754619;184;919535;-58
2022/08/31 09:27:57;;;;;;;5.70;4.20;;;;;;;;;;755364;184;918623;-58
2022/08/31 09:30:28;;;;;;;7.70;4.50;;;;;;;;;;754704;184;920673;-58
2022/08/31 09:32:54;;;;;;;7.57;4.17;;;;;;;;;;749198;184;796710;-59
2022/08/31 09:35:22;;;;;;;5.72;3.72;;;;;;;;;;758513;184;919395;-58
2022/08/31 09:37:47;;;;;;;5.67;3.90;;;;;;;;;;755556;183;816569;-59
2022/08/31 09:40:13;;;;;;;5.17;3.33;;;;;;;;;;755324;182;816338;-60
2022/08/31 09:42:39;;;;;;;5.37;3.40;;;;;;;;;;758059;184;916393;-58
2022/08/31 09:45:11;;;;;;;7.77;4.40;;;;;;;;;;752139;184;921161;-59
2022/08/31 09:47:46;;;;;;;8.88;3.37;;;;;;;;;;755989;182;920584;-58
2022/08/31 09:50:08;;;;;;;7.60;3.80;;;;;;;;;;750747;184;908078;-59
2022/08/31 09:57:40;;;;;;;5.30;3.87;;;;;;;;;;753901;184;920168;-60
2022/08/31 10:00:07;;;;;;;5.23;3.40;;;;;;;;;;748967;185;919637;-58
2022/08/31 10:02:36;;;;;;;5.77;2.90;;;;;;;;;;753872;184;919196;-59
2022/08/31 10:04:59;;;;;;;6.50;2.63;;;;;;;;;;756507;182;918669;-58
2022/08/31 10:07:30;;;;;;;5.63;2.87;;;;;;;;;;754110;184;903634;-58
2022/08/31 10:09:56;;;;;;;3.40;2.60;;;;;;;;;;748774;185;921359;-58
2022/08/31 10:12:37;;;;;;;4.23;3.03;;;;;;;;;;759754;184;871567;-57
2022/08/31 10:15:04;;;;;;;5.05;2.50;;;;;;;;;;759800;184;905095;-58
2022/08/31 10:17:30;;;;;;;8.10;2.50;;;;;;;;;;755155;184;919736;-57
2022/08/31 10:19:58;;;;;;;6.43;3.20;;;;;;;;;;754492;184;919322;-57
2022/08/31 10:22:24;;;;;;;4.50;2.40;;;;;;;;;;748882;185;918551;-57
2022/08/31 10:24:49;;;;;;;5.97;2.50;;;;;;;;;;751750;183;837121;-58
2022/08/31 10:27:16;;;;;;;3.57;2.57;;;;;;;;;;754252;183;920632;-57
2022/08/31 10:29:43;;;;;;;5.03;3.47;;;;;;;;;;753080;184;918646;-59
2022/08/31 10:32:09;;;;;;;5.70;2.87;;;;;;;;;;761035;184;917896;-58
2022/08/31 10:37:08;;;;;;;6.30;2.87;;;;;;;;;;753672;183;917261;-57
2022/08/31 10:39:33;;;;;;;4.83;3.27;;;;;;;;;;753664;184;919533;-57
2022/08/31 10:42:04;;;;;;;6.57;3.03;;;;;;;;;;758916;184;920144;-58
2022/08/31 10:44:27;;;;;;;5.77;2.60;;;;;;;;;;751535;185;918547;-58
2022/08/31 10:46:53;;;;;;;5.03;3.70;;;;;;;;;;749265;185;926986;-57
2022/08/31 10:49:20;;;;;;;5.90;3.57;;;;;;;;;;758761;184;919650;-57
2022/08/31 10:51:46;;;;;;;6.53;3.20;;;;;;;;;;755274;184;817346;-57
2022/08/31 10:54:17;;;;;;;16.60;4.30;;;;;;;;;;757210;184;921231;-58
2022/08/31 10:56:58;;;;;;;5.77;2.93;;;;;;;;;;756008;184;918169;-58
2022/08/31 10:59:33;;;;;;;4.60;3.00;;;;;;;;;;748311;184;920656;-58
2022/08/31 11:02:15;;;;;;;8.07;3.40;;;;;;;;;;752323;183;918230;-58
2022/08/31 11:04:43;;;;;;;4.40;3.43;;;;;;;;;;756668;185;919856;-57
2022/08/31 11:07:11;;;;;;;7.87;4.27;;;;;;;;;;753289;184;812456;-58
2022/08/31 11:09:39;;;;;;;4.73;3.23;;;;;;;;;;755698;184;923180;-58
2022/08/31 11:12:06;;;;;;;8.00;3.67;;;;;;;;;;749316;185;919051;-58
2022/08/31 11:14:42;;;;;;;8.97;4.53;;;;;;;;;;755444;183;918617;-58
2022/08/31 11:17:04;;;;;;;4.40;3.67;;;;;;;;;;754600;184;919025;-57
2022/08/31 11:19:31;;;;;;;4.73;4.00;;;;;;;;;;753604;184;918998;-57
2022/08/31 11:21:58;;;;;;;7.82;3.67;;;;;;;;;;746098;185;918671;-57
2022/08/31 11:24:39;;;;;;;6.40;3.97;;;;;;;;;;760065;184;893096;-58
2022/08/31 11:27:24;;;;;;;5.17;3.70;;;;;;;;;;758111;183;919164;-57
2022/08/31 11:29:55;;;;;;;5.20;3.70;;;;;;;;;;759064;185;818904;-57
2022/08/31 11:32:20;;;;;;;4.83;4.07;;;;;;;;;;750917;182;919538;-56
2022/08/31 11:34:49;;;;;;;5.97;4.80;;;;;;;;;;754406;182;919298;-56
2022/08/31 11:37:18;;;;;;;8.10;4.50;;;;;;;;;;753578;180;925242;-56
2022/08/31 11:39:46;;;;;;;5.10;4.60;;;;;;;;;;754905;184;926520;-55
2022/08/31 11:42:11;;;;;;;7.73;3.83;;;;;;;;;;753720;184;913377;-55
2022/08/31 11:44:44;;;;;;;4.90;3.70;;;;;;;;;;752176;184;919465;-55
2022/08/31 11:47:13;;;;;;;6.63;3.40;;;;;;;;;;754237;184;918782;-55
2022/08/31 11:49:38;;;;;;;7.90;4.00;;;;;;;;;;752359;184;921097;-55
2022/08/31 11:52:08;;;;;;;4.90;3.87;;;;;;;;;;756342;184;919576;-55
2022/08/31 11:54:47;;;;;;;9.30;4.83;;;;;;;;;;746589;185;921177;-54
2022/08/31 11:57:14;;;;;;;6.90;4.60;;;;;;;;;;753523;182;913763;-54
2022/08/31 11:59:37;;;;;;;8.00;4.50;;;;;;;;;;753857;185;919596;-55
2022/08/31 12:02:09;;;;;;;7.90;4.63;;;;;;;;;;756238;184;916240;-54
2022/08/31 12:04:59;;;;;;;8.00;4.20;;;;;;;;;;753532;184;919442;-54
2022/08/31 12:07:27;;;;;;;7.03;3.90;;;;;;;;;;750213;181;909377;-54
2022/08/31 12:09:56;;;;;;;4.33;3.77;;;;;;;;;;754937;184;850955;-55
2022/08/31 12:12:24;;;;;;;5.60;4.00;;;;;;;;;;754021;184;819125;-55
2022/08/31 12:14:50;;;;;;;5.03;3.53;;;;;;;;;;759799;183;882605;-54
2022/08/31 12:17:20;;;;;;;5.43;4.13;;;;;;;;;;753196;182;919703;-56
2022/08/31 12:20:02;;;;;;;10.38;3.30;;;;;;;;;;753781;184;918454;-55
2022/08/31 12:25:29;;;;;;;5.47;3.13;;;;;;;;;;743182;185;858006;-54
2022/08/31 12:28:16;;;;;;;4.30;3.23;;;;;;;;;;748724;183;918878;-54
2022/08/31 12:30:46;;;;;;;5.60;3.70;;;;;;;;;;747818;184;916999;-54
2022/08/31 12:33:12;;;;;;;4.30;3.20;;;;;;;;;;756437;184;774852;-55
2022/08/31 12:35:38;;;;;;;4.80;3.60;;;;;;;;;;757487;184;918034;-55
2022/08/31 12:38:04;;;;;;;4.00;3.47;;;;;;;;;;752280;185;919504;-55
2022/08/31 12:40:31;;;;;;;8.80;3.47;;;;;;;;;;754092;184;919862;-54
2022/08/31 12:42:58;;;;;;;5.80;3.67;;;;;;;;;;758405;184;815342;-54
2022/08/31 12:45:29;;;;;;;5.80;3.10;;;;;;;;;;753719;184;918518;-55
2022/08/31 12:48:01;;;;;;;4.83;2.97;;;;;;;;;;756863;184;817385;-55
2022/08/31 12:50:32;;;;;;;3.77;2.70;;;;;;;;;;754114;184;921407;-55
2022/08/31 12:53:14;;;;;;;7.13;3.00;;;;;;;;;;754734;184;818666;-54
2022/08/31 12:55:39;;;;;;;4.50;2.90;;;;;;;;;;744500;185;920185;-54
2022/08/31 12:58:08;;;;;;;4.97;2.97;;;;;;;;;;758439;182;919276;-57
2022/08/31 13:00:35;;;;;;;6.63;2.50;;;;;;;;;;755232;182;923454;-53
2022/08/31 13:03:00;;;;;;;5.07;2.55;;;;;;;;;;751810;184;918168;-53
2022/08/31 13:05:26;;;;;;;4.77;2.70;;;;;;;;;;760905;184;918405;-54
2022/08/31 13:07:52;;;;;;;6.00;3.00;;;;;;;;;;751524;185;921199;-53
2022/08/31 13:10:31;;;;;;;6.00;3.33;;;;;;;;;;751075;185;918729;-53
2022/08/31 13:12:57;;;;;;;4.87;3.07;;;;;;;;;;754103;184;919680;-52
2022/08/31 13:15:23;;;;;;;6.77;3.10;;;;;;;;;;757070;185;819347;-53
2022/08/31 13:17:49;;;;;;;6.20;2.77;;;;;;;;;;735455;187;919649;-53
2022/08/31 13:20:16;;;;;;;5.70;2.90;;;;;;;;;;756757;182;630129;-53
2022/08/31 13:22:43;;;;;;;7.50;3.23;;;;;;;;;;756284;180;618294;-53
2022/08/31 13:25:15;;;;;;;5.50;3.00;;;;;;;;;;756608;185;919283;-54
2022/08/31 13:27:45;;;;;;;5.83;2.70;;;;;;;;;;751453;184;920085;-53
2022/08/31 13:30:17;;;;;;;4.20;2.80;;;;;;;;;;749464;185;920755;-53
2022/08/31 13:32:41;;;;;;;3.17;2.37;;;;;;;;;;751299;184;918225;-53
2022/08/31 13:35:07;;;;;;;6.30;3.33;;;;;;;;;;758162;184;919686;-53
2022/08/31 13:37:31;;;;;;;7.23;2.93;;;;;;;;;;753147;183;917762;-52
2022/08/31 13:39:56;;;;;;;7.68;2.97;;;;;;;;;;757193;184;919354;-53
2022/08/31 13:42:22;;;;;;;6.13;3.00;;;;;;;;;;753348;185;919254;-54
2022/08/31 13:44:48;;;;;;;6.43;3.10;;;;;;;;;;751897;184;921354;-53
2022/08/31 13:47:16;;;;;;;5.57;3.13;;;;;;;;;;752247;184;891585;-53
2022/08/31 13:49:40;;;;;;;3.13;2.20;;;;;;;;;;753087;184;890219;-53
2022/08/31 13:52:06;;;;;;;5.30;2.83;;;;;;;;;;749394;185;911210;-52
2022/08/31 13:54:32;;;;;;;5.20;2.63;;;;;;;;;;753736;184;930839;-52
2022/08/31 13:57:04;;;;;;;4.70;2.40;;;;;;;;;;751457;185;817542;-53
2022/08/31 13:59:30;;;;;;;6.40;2.30;;;;;;;;;;763982;183;618551;-53
2022/08/31 14:01:56;;;;;;;4.30;2.87;;;;;;;;;;752889;184;920985;-53
2022/08/31 14:04:42;;;;;;;5.57;2.90;;;;;;;;;;753030;184;817379;-52
2022/08/31 14:06:53;;;;;;;4.40;2.40;;;;;;;;;;748226;184;919939;-53
2022/08/31 14:09:19;;;;;;;4.43;2.87;;;;;;;;;;758713;182;921014;-53
2022/08/31 14:11:50;;;;;;;4.20;2.53;;;;;;;;;;753798;182;920687;-53
2022/08/31 14:14:15;;;;;;;3.90;3.17;;;;;;;;;;754287;184;920892;-53
2022/08/31 14:16:40;;;;;;;5.13;2.80;;;;;;;;;;753810;185;920669;-52
2022/08/31 14:19:07;;;;;;;5.47;3.43;;;;;;;;;;754592;184;921441;-53
2022/08/31 14:21:33;;;;;;;10.80;3.20;;;;;;;;;;754915;183;922116;-52
2022/08/31 14:24:00;;;;;;;7.27;3.80;;;;;;;;;;753898;184;921240;-53
2022/08/31 14:26:26;;;;;;;7.27;2.90;;;;;;;;;;755061;185;919949;-53
2022/08/31 14:28:52;;;;;;;10.87;3.13;;;;;;;;;;747344;184;940852;-52
2022/08/31 14:31:21;;;;;;;4.73;3.60;;;;;;;;;;753371;182;816912;-53
2022/08/31 14:33:45;;;;;;;5.73;3.40;;;;;;;;;;760482;182;812202;-53